SAS2268 LPMA-EKCH
Flight info
| Callsign | SAS2268 |
|---|---|
| Flight time | N/A |
| Altitude | 34000 |
| Route | DEGUN DCT ROLAR DCT MARUM DCT ASMAR/N0447F360 DCT DEMOS DCT LOTEE DCT AZFIC DCT ERIGA UN741 NTS DCT PIWIZ DCT TSU UN858 OQQAL DCT RANUX/N0433F370 DCT VALEK DCT LUTAX DCT DIK/N0429F360 DCT ARCKY/N0432F370 DCT IBESA DCT GESTO DCT MAKEL N851 GESKA Z711 MONAK |
| Aircraft | A320/M-SDE3FGHIRWY/LB1 |
Departure
| Time | N/A |
|---|---|
| Airport | Cristiano Ronaldo International Airport (LPMA) |
Arrival
| Time | 2026-05-04 19:09 |
|---|---|
| Airport | Copenhagen Kastrup Airport (EKCH) |
| Time | Latitude | Longitude | Altitude | Speed | Heading |
|---|---|---|---|---|---|
| 2026-05-04 15:17 | 35.37596 | -14.68916 | 34121 ft | 416 kts | 24° |
| 2026-05-04 15:17 | 35.40117 | -14.67083 | 34176 ft | 427 kts | 24° |
| 2026-05-04 15:18 | 35.42708 | -14.65208 | 34170 ft | 438 kts | 24° |
| 2026-05-04 15:18 | 35.45368 | -14.63281 | 34173 ft | 450 kts | 24° |
| 2026-05-04 15:18 | 35.48097 | -14.61291 | 34170 ft | 461 kts | 25° |
| 2026-05-04 15:19 | 35.53645 | -14.57206 | 34186 ft | 467 kts | 25° |
| 2026-05-04 15:19 | 35.61997 | -14.51026 | 34200 ft | 467 kts | 25° |
| 2026-05-04 15:20 | 35.67569 | -14.46919 | 34173 ft | 466 kts | 25° |
| 2026-05-04 15:20 | 35.72233 | -14.43483 | 34173 ft | 466 kts | 25° |
| 2026-05-04 15:21 | 35.77800 | -14.39372 | 34178 ft | 467 kts | 25° |
| 2026-05-04 15:22 | 35.86146 | -14.33195 | 34175 ft | 467 kts | 25° |
| 2026-05-04 15:22 | 35.94491 | -14.26995 | 34191 ft | 467 kts | 25° |
| 2026-05-04 15:23 | 36.00061 | -14.22855 | 34183 ft | 467 kts | 25° |
| 2026-05-04 15:23 | 36.05628 | -14.18697 | 34187 ft | 468 kts | 25° |
| 2026-05-04 15:24 | 36.16765 | -14.10380 | 34197 ft | 468 kts | 24° |
| 2026-05-04 15:25 | 36.22335 | -14.06209 | 34196 ft | 468 kts | 25° |
| 2026-05-04 15:26 | 36.30685 | -13.99952 | 34173 ft | 468 kts | 25° |
| 2026-05-04 15:26 | 36.39025 | -13.93684 | 34164 ft | 467 kts | 24° |
| 2026-05-04 15:27 | 36.47361 | -13.87415 | 34188 ft | 467 kts | 24° |
| 2026-05-04 15:28 | 36.55683 | -13.81117 | 34196 ft | 467 kts | 24° |
| 2026-05-04 15:29 | 36.64003 | -13.74806 | 34187 ft | 466 kts | 24° |
| 2026-05-04 15:30 | 36.83352 | -13.60058 | 34194 ft | 465 kts | 25° |
| 2026-05-04 15:31 | 36.91624 | -13.53736 | 34189 ft | 465 kts | 25° |
| 2026-05-04 15:32 | 37.05396 | -13.43174 | 34192 ft | 464 kts | 26° |
| 2026-05-04 15:34 | 37.19132 | -13.32589 | 34179 ft | 464 kts | 26° |
| 2026-05-04 15:34 | 37.27366 | -13.26225 | 34189 ft | 463 kts | 26° |
| 2026-05-04 15:35 | 37.35593 | -13.19848 | 34182 ft | 463 kts | 26° |
| 2026-05-04 15:36 | 37.43816 | -13.13452 | 34178 ft | 463 kts | 26° |
| 2026-05-04 15:36 | 37.49299 | -13.09192 | 34198 ft | 463 kts | 26° |
| 2026-05-04 15:37 | 37.54777 | -13.04922 | 34187 ft | 463 kts | 26° |
| 2026-05-04 15:37 | 37.60250 | -13.00641 | 34184 ft | 463 kts | 26° |
| 2026-05-04 15:38 | 37.65720 | -12.96355 | 34179 ft | 463 kts | 26° |
| 2026-05-04 15:38 | 37.71185 | -12.92060 | 34177 ft | 463 kts | 26° |
| 2026-05-04 15:39 | 37.76655 | -12.87761 | 34170 ft | 463 kts | 26° |
| 2026-05-04 15:40 | 37.84857 | -12.81315 | 34174 ft | 463 kts | 26° |
| 2026-05-04 15:40 | 37.90322 | -12.76997 | 34182 ft | 463 kts | 25° |
| 2026-05-04 15:41 | 37.95822 | -12.72648 | 34185 ft | 463 kts | 26° |
| 2026-05-04 15:41 | 38.01285 | -12.68325 | 34198 ft | 462 kts | 25° |
| 2026-05-04 15:42 | 38.06735 | -12.63998 | 34190 ft | 462 kts | 25° |
| 2026-05-04 15:42 | 38.12182 | -12.59663 | 34179 ft | 462 kts | 25° |
| 2026-05-04 15:43 | 38.17628 | -12.55334 | 34174 ft | 462 kts | 25° |
| 2026-05-04 15:43 | 38.23067 | -12.50995 | 34199 ft | 462 kts | 25° |
| 2026-05-04 15:44 | 38.28503 | -12.46637 | 34181 ft | 461 kts | 25° |
| 2026-05-04 15:44 | 38.33933 | -12.42289 | 34181 ft | 461 kts | 25° |
| 2026-05-04 15:45 | 38.39362 | -12.37943 | 34192 ft | 461 kts | 25° |
| 2026-05-04 15:45 | 38.44787 | -12.33584 | 34184 ft | 460 kts | 25° |
| 2026-05-04 15:46 | 38.49901 | -12.29469 | 34172 ft | 459 kts | 24° |
| 2026-05-04 15:46 | 38.55292 | -12.25121 | 34163 ft | 458 kts | 24° |
| 2026-05-04 15:47 | 38.60679 | -12.20773 | 34156 ft | 458 kts | 24° |
| 2026-05-04 15:47 | 38.66070 | -12.16414 | 34155 ft | 458 kts | 24° |
| 2026-05-04 15:48 | 38.71457 | -12.12041 | 34156 ft | 459 kts | 24° |
| 2026-05-04 15:48 | 38.79543 | -12.05475 | 34180 ft | 458 kts | 24° |
| 2026-05-04 15:49 | 38.84917 | -12.01098 | 34178 ft | 458 kts | 24° |
| 2026-05-04 15:49 | 38.90295 | -11.96711 | 34172 ft | 458 kts | 24° |
| 2026-05-04 15:50 | 38.95671 | -11.92317 | 34165 ft | 458 kts | 24° |
| 2026-05-04 15:50 | 39.01044 | -11.87918 | 34166 ft | 457 kts | 24° |
| 2026-05-04 15:51 | 39.06402 | -11.83520 | 34157 ft | 457 kts | 24° |
| 2026-05-04 15:51 | 39.11762 | -11.79117 | 34154 ft | 457 kts | 24° |
| 2026-05-04 15:52 | 39.17125 | -11.74702 | 34151 ft | 457 kts | 24° |
| 2026-05-04 15:52 | 39.22476 | -11.70275 | 34182 ft | 456 kts | 24° |
| 2026-05-04 15:53 | 39.27821 | -11.65857 | 34160 ft | 456 kts | 24° |
| 2026-05-04 15:53 | 39.33170 | -11.61438 | 34150 ft | 457 kts | 24° |
| 2026-05-04 15:54 | 39.38518 | -11.57011 | 34141 ft | 457 kts | 24° |
| 2026-05-04 15:54 | 39.43869 | -11.52563 | 34141 ft | 457 kts | 24° |
| 2026-05-04 15:55 | 39.49220 | -11.48101 | 34174 ft | 458 kts | 24° |
| 2026-05-04 15:55 | 39.54573 | -11.43635 | 34163 ft | 458 kts | 24° |
| 2026-05-04 15:56 | 39.59929 | -11.39161 | 34157 ft | 459 kts | 24° |
| 2026-05-04 15:56 | 39.62621 | -11.36912 | 34356 ft | 461 kts | 24° |
| 2026-05-04 15:56 | 39.65317 | -11.34656 | 34631 ft | 462 kts | 24° |
| 2026-05-04 15:57 | 39.68018 | -11.32393 | 34897 ft | 462 kts | 24° |
| 2026-05-04 15:57 | 39.70719 | -11.30129 | 35210 ft | 463 kts | 25° |
| 2026-05-04 15:57 | 39.73422 | -11.27858 | 35447 ft | 463 kts | 25° |
| 2026-05-04 15:57 | 39.76129 | -11.25583 | 35692 ft | 463 kts | 25° |
| 2026-05-04 15:58 | 39.77958 | -11.24045 | 35868 ft | 463 kts | 25° |
| 2026-05-04 15:58 | 39.80661 | -11.21765 | 36073 ft | 464 kts | 25° |
| 2026-05-04 15:58 | 39.86085 | -11.17189 | 36135 ft | 464 kts | 25° |
| 2026-05-04 15:59 | 39.91506 | -11.12621 | 36133 ft | 464 kts | 25° |
| 2026-05-04 15:59 | 39.96929 | -11.08034 | 36118 ft | 464 kts | 25° |
| 2026-05-04 16:00 | 40.02339 | -11.03426 | 36130 ft | 464 kts | 25° |
| 2026-05-04 16:00 | 40.07754 | -10.98826 | 36139 ft | 465 kts | 25° |
| 2026-05-04 16:01 | 40.13176 | -10.94225 | 36153 ft | 465 kts | 25° |
| 2026-05-04 16:01 | 40.18593 | -10.89607 | 36140 ft | 465 kts | 26° |
| 2026-05-04 16:02 | 40.24008 | -10.84964 | 36137 ft | 466 kts | 26° |
| 2026-05-04 16:03 | 40.32143 | -10.77995 | 36135 ft | 466 kts | 26° |
| 2026-05-04 16:03 | 40.37567 | -10.73338 | 36138 ft | 466 kts | 26° |
| 2026-05-04 16:04 | 40.42986 | -10.68677 | 36166 ft | 466 kts | 26° |
| 2026-05-04 16:04 | 40.51118 | -10.61665 | 36150 ft | 466 kts | 26° |
| 2026-05-04 16:05 | 40.56534 | -10.56971 | 36146 ft | 466 kts | 26° |
| 2026-05-04 16:06 | 40.64663 | -10.49925 | 36127 ft | 467 kts | 26° |
| 2026-05-04 16:07 | 40.75510 | -10.40497 | 36137 ft | 467 kts | 27° |
| 2026-05-04 16:08 | 40.86358 | -10.31033 | 36125 ft | 467 kts | 27° |
| 2026-05-04 16:09 | 40.99900 | -10.19150 | 36140 ft | 467 kts | 27° |
| 2026-05-04 16:10 | 41.10731 | -10.09585 | 36118 ft | 468 kts | 27° |
| 2026-05-04 16:11 | 41.21577 | -10.00003 | 36120 ft | 468 kts | 28° |
| 2026-05-04 16:12 | 41.37823 | -9.85563 | 36129 ft | 468 kts | 28° |
| 2026-05-04 16:13 | 41.48670 | -9.75852 | 36120 ft | 468 kts | 28° |
| 2026-05-04 16:14 | 41.59489 | -9.66149 | 36124 ft | 468 kts | 28° |
| 2026-05-04 16:16 | 41.72987 | -9.53990 | 36106 ft | 468 kts | 29° |
| 2026-05-04 16:17 | 41.86448 | -9.41773 | 36102 ft | 467 kts | 29° |
| 2026-05-04 16:18 | 41.96779 | -9.31111 | 36092 ft | 472 kts | 38° |
| 2026-05-04 16:19 | 42.08959 | -9.16304 | 36098 ft | 472 kts | 38° |
| 2026-05-04 16:20 | 42.21114 | -9.01448 | 36097 ft | 472 kts | 38° |
| 2026-05-04 16:22 | 42.33255 | -8.86533 | 36109 ft | 472 kts | 39° |
| 2026-05-04 16:23 | 42.47772 | -8.68587 | 36093 ft | 471 kts | 39° |
| 2026-05-04 16:25 | 42.62282 | -8.50542 | 36083 ft | 472 kts | 39° |
| 2026-05-04 16:26 | 42.79188 | -8.29345 | 36096 ft | 472 kts | 40° |
| 2026-05-04 16:28 | 42.91243 | -8.14133 | 36088 ft | 473 kts | 40° |
| 2026-05-04 16:29 | 43.08090 | -7.92744 | 36083 ft | 472 kts | 40° |
| 2026-05-04 16:31 | 43.20087 | -7.77393 | 36089 ft | 472 kts | 41° |
| 2026-05-04 16:32 | 43.34426 | -7.58948 | 36057 ft | 471 kts | 41° |
| 2026-05-04 16:33 | 43.43960 | -7.46619 | 36065 ft | 470 kts | 41° |
| 2026-05-04 16:34 | 43.51093 | -7.37351 | 36053 ft | 470 kts | 41° |
| 2026-05-04 16:35 | 43.64551 | -7.19758 | 36053 ft | 469 kts | 42° |
| 2026-05-04 16:36 | 43.71647 | -7.10442 | 36042 ft | 469 kts | 42° |
| 2026-05-04 16:37 | 43.78746 | -7.01121 | 36039 ft | 469 kts | 42° |
| 2026-05-04 16:38 | 43.88187 | -6.88663 | 36034 ft | 468 kts | 42° |
| 2026-05-04 16:39 | 43.99938 | -6.73023 | 36023 ft | 468 kts | 43° |
| 2026-05-04 16:40 | 44.09329 | -6.60480 | 36029 ft | 468 kts | 43° |
| 2026-05-04 16:41 | 44.21031 | -6.44783 | 36008 ft | 467 kts | 43° |
| 2026-05-04 16:43 | 44.32691 | -6.29007 | 36016 ft | 467 kts | 43° |
| 2026-05-04 16:43 | 44.39677 | -6.19542 | 36016 ft | 466 kts | 43° |
| 2026-05-04 16:45 | 44.53613 | -6.00530 | 36008 ft | 466 kts | 44° |
| 2026-05-04 16:46 | 44.65209 | -5.84619 | 36004 ft | 467 kts | 44° |
| 2026-05-04 16:47 | 44.74650 | -5.71676 | 36001 ft | 485 kts | 44° |
| 2026-05-04 16:48 | 44.81993 | -5.61606 | 35997 ft | 496 kts | 44° |
| 2026-05-04 16:48 | 44.84465 | -5.58204 | 35998 ft | 497 kts | 44° |
| 2026-05-04 16:49 | 44.94331 | -5.44585 | 35995 ft | 496 kts | 45° |
| 2026-05-04 16:50 | 45.04170 | -5.30912 | 35997 ft | 497 kts | 45° |
| 2026-05-04 16:51 | 45.11553 | -5.20606 | 36003 ft | 497 kts | 45° |
| 2026-05-04 16:52 | 45.21401 | -5.06832 | 36007 ft | 497 kts | 45° |
| 2026-05-04 16:53 | 45.28765 | -4.96470 | 36004 ft | 497 kts | 45° |
| 2026-05-04 16:54 | 45.38574 | -4.82621 | 36008 ft | 497 kts | 45° |
| 2026-05-04 16:55 | 45.53218 | -4.61774 | 36003 ft | 496 kts | 46° |
| 2026-05-04 16:56 | 45.65374 | -4.44352 | 36010 ft | 495 kts | 46° |
| 2026-05-04 16:57 | 45.72663 | -4.33854 | 36005 ft | 495 kts | 46° |
| 2026-05-04 16:58 | 45.82352 | -4.19860 | 36004 ft | 494 kts | 46° |
| 2026-05-04 17:00 | 45.96812 | -3.98771 | 36007 ft | 493 kts | 46° |
| 2026-05-04 17:01 | 46.08811 | -3.81179 | 35999 ft | 493 kts | 47° |
| 2026-05-04 17:02 | 46.18400 | -3.67021 | 35997 ft | 493 kts | 47° |
| 2026-05-04 17:02 | 46.23112 | -3.60036 | 35974 ft | 472 kts | 47° |
| 2026-05-04 17:03 | 46.25384 | -3.56675 | 35973 ft | 465 kts | 47° |
| 2026-05-04 17:03 | 46.32125 | -3.46656 | 35974 ft | 462 kts | 47° |
| 2026-05-04 17:04 | 46.41035 | -3.33317 | 35976 ft | 460 kts | 47° |
| 2026-05-04 17:05 | 46.49964 | -3.19912 | 35964 ft | 460 kts | 47° |
| 2026-05-04 17:06 | 46.54577 | -3.12959 | 35982 ft | 460 kts | 47° |
| 2026-05-04 17:07 | 46.58437 | -3.05653 | 35984 ft | 455 kts | 62° |
| 2026-05-04 17:07 | 46.59489 | -3.03016 | 35984 ft | 455 kts | 62° |
| 2026-05-04 17:07 | 46.63208 | -2.93720 | 35983 ft | 455 kts | 62° |
| 2026-05-04 17:08 | 46.67986 | -2.81812 | 35959 ft | 455 kts | 62° |
| 2026-05-04 17:09 | 46.71168 | -2.73838 | 35955 ft | 455 kts | 62° |
| 2026-05-04 17:09 | 46.74341 | -2.65847 | 35956 ft | 455 kts | 62° |
| 2026-05-04 17:10 | 46.82261 | -2.45828 | 35965 ft | 456 kts | 62° |
| 2026-05-04 17:11 | 46.85419 | -2.37792 | 35947 ft | 456 kts | 62° |
| 2026-05-04 17:12 | 46.90330 | -2.25845 | 35951 ft | 458 kts | 60° |
| 2026-05-04 17:13 | 46.98202 | -2.07409 | 35960 ft | 458 kts | 61° |
| 2026-05-04 17:14 | 47.04671 | -1.91319 | 35934 ft | 459 kts | 64° |
| 2026-05-04 17:15 | 47.09297 | -1.79030 | 35933 ft | 459 kts | 64° |
| 2026-05-04 17:16 | 47.15566 | -1.62654 | 35923 ft | 460 kts | 64° |
| 2026-05-04 17:17 | 47.22095 | -1.46438 | 35937 ft | 461 kts | 61° |
| 2026-05-04 17:18 | 47.28712 | -1.30265 | 35943 ft | 461 kts | 62° |
| 2026-05-04 17:19 | 47.35243 | -1.14008 | 35929 ft | 461 kts | 62° |
| 2026-05-04 17:20 | 47.41770 | -0.97708 | 35946 ft | 461 kts | 62° |
| 2026-05-04 17:20 | 47.46647 | -0.85464 | 35948 ft | 461 kts | 63° |
| 2026-05-04 17:21 | 47.53124 | -0.69093 | 35935 ft | 462 kts | 63° |
| 2026-05-04 17:22 | 47.56362 | -0.60887 | 35937 ft | 462 kts | 63° |
| 2026-05-04 17:23 | 47.62833 | -0.44423 | 35947 ft | 462 kts | 63° |
| 2026-05-04 17:24 | 47.67658 | -0.32053 | 35951 ft | 462 kts | 63° |
| 2026-05-04 17:25 | 47.74090 | -0.15484 | 35953 ft | 462 kts | 63° |
| 2026-05-04 17:26 | 47.80482 | 0.01071 | 35942 ft | 462 kts | 63° |
| 2026-05-04 17:27 | 47.88443 | 0.21862 | 35932 ft | 463 kts | 63° |
| 2026-05-04 17:28 | 47.94801 | 0.38570 | 35949 ft | 464 kts | 63° |
| 2026-05-04 17:29 | 48.04313 | 0.63777 | 35935 ft | 465 kts | 63° |
| 2026-05-04 17:31 | 48.12214 | 0.84899 | 35941 ft | 466 kts | 63° |
| 2026-05-04 17:32 | 48.20100 | 1.06121 | 35921 ft | 467 kts | 63° |
| 2026-05-04 17:33 | 48.25881 | 1.17921 | 35939 ft | 469 kts | 52° |
| 2026-05-04 17:33 | 48.27954 | 1.21711 | 35944 ft | 469 kts | 52° |
| 2026-05-04 17:34 | 48.36203 | 1.36900 | 35926 ft | 469 kts | 52° |
| 2026-05-04 17:35 | 48.46493 | 1.55989 | 35945 ft | 469 kts | 52° |
| 2026-05-04 17:36 | 48.50602 | 1.63628 | 35952 ft | 469 kts | 52° |
| 2026-05-04 17:36 | 48.54696 | 1.71280 | 35950 ft | 468 kts | 52° |
| 2026-05-04 17:37 | 48.58783 | 1.78940 | 35934 ft | 469 kts | 52° |
| 2026-05-04 17:37 | 48.62873 | 1.86608 | 35934 ft | 469 kts | 52° |
| 2026-05-04 17:38 | 48.66960 | 1.94291 | 35948 ft | 469 kts | 52° |
| 2026-05-04 17:38 | 48.71032 | 2.01992 | 35952 ft | 468 kts | 53° |
| 2026-05-04 17:39 | 48.76082 | 2.14460 | 35949 ft | 462 kts | 73° |
| 2026-05-04 17:39 | 48.77819 | 2.23814 | 35933 ft | 461 kts | 77° |
| 2026-05-04 17:40 | 48.79512 | 2.33183 | 35932 ft | 461 kts | 77° |
| 2026-05-04 17:40 | 48.81199 | 2.42582 | 35933 ft | 462 kts | 78° |
| 2026-05-04 17:41 | 48.82879 | 2.51995 | 35934 ft | 462 kts | 78° |
| 2026-05-04 17:41 | 48.84546 | 2.61414 | 35938 ft | 462 kts | 78° |
| 2026-05-04 17:42 | 48.86198 | 2.70845 | 35926 ft | 462 kts | 78° |
| 2026-05-04 17:42 | 48.87853 | 2.80295 | 35928 ft | 463 kts | 78° |
| 2026-05-04 17:43 | 48.89503 | 2.89741 | 35940 ft | 463 kts | 78° |
| 2026-05-04 17:43 | 48.91141 | 2.99202 | 35944 ft | 463 kts | 78° |
| 2026-05-04 17:44 | 48.92766 | 3.08670 | 35925 ft | 463 kts | 78° |
| 2026-05-04 17:44 | 48.94387 | 3.18141 | 35932 ft | 463 kts | 78° |
| 2026-05-04 17:45 | 48.96012 | 3.27631 | 35941 ft | 463 kts | 78° |
| 2026-05-04 17:45 | 48.97620 | 3.37118 | 35943 ft | 463 kts | 79° |
| 2026-05-04 17:46 | 48.98423 | 3.41887 | 36116 ft | 465 kts | 78° |
| 2026-05-04 17:46 | 48.99222 | 3.46652 | 36410 ft | 465 kts | 78° |
| 2026-05-04 17:46 | 49.00023 | 3.51428 | 36695 ft | 465 kts | 78° |
| 2026-05-04 17:46 | 49.00825 | 3.56205 | 36916 ft | 466 kts | 78° |
| 2026-05-04 17:47 | 49.02426 | 3.65773 | 36952 ft | 466 kts | 78° |
| 2026-05-04 17:47 | 49.04014 | 3.75336 | 36949 ft | 465 kts | 78° |
| 2026-05-04 17:48 | 49.05585 | 3.84897 | 36948 ft | 465 kts | 79° |
| 2026-05-04 17:48 | 49.07148 | 3.94478 | 36953 ft | 465 kts | 79° |
| 2026-05-04 17:49 | 49.08707 | 4.04051 | 36947 ft | 465 kts | 79° |
| 2026-05-04 17:49 | 49.10259 | 4.13629 | 36950 ft | 465 kts | 79° |
| 2026-05-04 17:50 | 49.11810 | 4.23210 | 36948 ft | 465 kts | 79° |
| 2026-05-04 17:50 | 49.13342 | 4.32793 | 36951 ft | 465 kts | 79° |
| 2026-05-04 17:51 | 49.15501 | 4.42146 | 36938 ft | 468 kts | 70° |
| 2026-05-04 17:51 | 49.18002 | 4.51316 | 36946 ft | 468 kts | 70° |
| 2026-05-04 17:52 | 49.20091 | 4.59035 | 36951 ft | 468 kts | 70° |
| 2026-05-04 17:52 | 49.22571 | 4.68244 | 36971 ft | 468 kts | 70° |
| 2026-05-04 17:53 | 49.25045 | 4.77464 | 36981 ft | 468 kts | 70° |
| 2026-05-04 17:53 | 49.27505 | 4.86680 | 36984 ft | 468 kts | 70° |
| 2026-05-04 17:54 | 49.29954 | 4.95909 | 36965 ft | 467 kts | 70° |
| 2026-05-04 17:54 | 49.32403 | 5.05140 | 36973 ft | 467 kts | 70° |
| 2026-05-04 17:55 | 49.34856 | 5.14417 | 36985 ft | 467 kts | 71° |
| 2026-05-04 17:55 | 49.37281 | 5.23618 | 36985 ft | 467 kts | 71° |
| 2026-05-04 17:56 | 49.39708 | 5.32859 | 36989 ft | 467 kts | 71° |
| 2026-05-04 17:56 | 49.42515 | 5.43634 | 36982 ft | 467 kts | 71° |
| 2026-05-04 17:57 | 49.44923 | 5.52914 | 36986 ft | 467 kts | 71° |
| 2026-05-04 17:57 | 49.47323 | 5.62202 | 36989 ft | 467 kts | 71° |
| 2026-05-04 17:58 | 49.49821 | 5.71429 | 36994 ft | 470 kts | 64° |
| 2026-05-04 17:58 | 49.53716 | 5.79515 | 36987 ft | 473 kts | 45° |
| 2026-05-04 17:59 | 49.58971 | 5.85607 | 36965 ft | 475 kts | 33° |
| 2026-05-04 18:00 | 49.67289 | 5.93938 | 36965 ft | 475 kts | 33° |
| 2026-05-04 18:00 | 49.72832 | 5.99522 | 36981 ft | 476 kts | 33° |
| 2026-05-04 18:01 | 49.78376 | 6.05116 | 36987 ft | 476 kts | 33° |
| 2026-05-04 18:01 | 49.84080 | 6.10296 | 36998 ft | 475 kts | 22° |
| 2026-05-04 18:02 | 49.90437 | 6.12835 | 37005 ft | 471 kts | 3° |
| 2026-05-04 18:02 | 49.93703 | 6.13005 | 37004 ft | 469 kts | 358° |
| 2026-05-04 18:02 | 50.00228 | 6.13029 | 36993 ft | 469 kts | 358° |
| 2026-05-04 18:03 | 50.06774 | 6.13073 | 37009 ft | 470 kts | 358° |
| 2026-05-04 18:03 | 50.13308 | 6.13113 | 37000 ft | 470 kts | 358° |
| 2026-05-04 18:04 | 50.19850 | 6.13151 | 36998 ft | 470 kts | 358° |
| 2026-05-04 18:05 | 50.29610 | 6.14560 | 36999 ft | 474 kts | 16° |
| 2026-05-04 18:05 | 50.35542 | 6.18994 | 36992 ft | 474 kts | 36° |
| 2026-05-04 18:06 | 50.43438 | 6.28340 | 36978 ft | 475 kts | 37° |
| 2026-05-04 18:06 | 50.48711 | 6.34613 | 36992 ft | 475 kts | 37° |
| 2026-05-04 18:07 | 50.53968 | 6.40896 | 37002 ft | 475 kts | 37° |
| 2026-05-04 18:07 | 50.59228 | 6.47207 | 36997 ft | 475 kts | 38° |
| 2026-05-04 18:08 | 50.64567 | 6.53637 | 36987 ft | 475 kts | 37° |
| 2026-05-04 18:08 | 50.69730 | 6.59873 | 36981 ft | 476 kts | 37° |
| 2026-05-04 18:09 | 50.75060 | 6.66320 | 36972 ft | 488 kts | 37° |
| 2026-05-04 18:09 | 50.80481 | 6.72893 | 36973 ft | 493 kts | 37° |
| 2026-05-04 18:10 | 50.85915 | 6.79505 | 36977 ft | 493 kts | 37° |
| 2026-05-04 18:10 | 50.91344 | 6.86142 | 36982 ft | 493 kts | 38° |
| 2026-05-04 18:11 | 50.96776 | 6.92810 | 37009 ft | 493 kts | 38° |
| 2026-05-04 18:11 | 51.02199 | 6.99473 | 37007 ft | 493 kts | 38° |
| 2026-05-04 18:12 | 51.07615 | 7.06153 | 37007 ft | 494 kts | 38° |
| 2026-05-04 18:12 | 51.13041 | 7.12864 | 37009 ft | 494 kts | 37° |
| 2026-05-04 18:13 | 51.18466 | 7.19583 | 36996 ft | 494 kts | 37° |
| 2026-05-04 18:14 | 51.26596 | 7.29692 | 36999 ft | 494 kts | 37° |
| 2026-05-04 18:14 | 51.32013 | 7.36465 | 37009 ft | 494 kts | 37° |
| 2026-05-04 18:15 | 51.42830 | 7.50048 | 37015 ft | 494 kts | 37° |
| 2026-05-04 18:16 | 51.48227 | 7.56860 | 37010 ft | 494 kts | 37° |
| 2026-05-04 18:16 | 51.53619 | 7.63688 | 37010 ft | 494 kts | 37° |
| 2026-05-04 18:17 | 51.61698 | 7.73949 | 37008 ft | 493 kts | 37° |
| 2026-05-04 18:18 | 51.69770 | 7.84243 | 36998 ft | 493 kts | 37° |
| 2026-05-04 18:18 | 51.75140 | 7.91132 | 37001 ft | 493 kts | 37° |
| 2026-05-04 18:19 | 51.83193 | 8.01473 | 36995 ft | 493 kts | 37° |
| 2026-05-04 18:19 | 51.88555 | 8.08399 | 36992 ft | 493 kts | 37° |
| 2026-05-04 18:20 | 51.93940 | 8.15376 | 36986 ft | 493 kts | 37° |
| 2026-05-04 18:20 | 51.99304 | 8.22328 | 36991 ft | 493 kts | 37° |
| 2026-05-04 18:21 | 52.04646 | 8.29297 | 37004 ft | 493 kts | 37° |
| 2026-05-04 18:21 | 52.09989 | 8.36294 | 36991 ft | 493 kts | 37° |
| 2026-05-04 18:22 | 52.15333 | 8.43301 | 36976 ft | 493 kts | 37° |
| 2026-05-04 18:22 | 52.20674 | 8.50315 | 36979 ft | 493 kts | 37° |
| 2026-05-04 18:23 | 52.26005 | 8.57359 | 36988 ft | 493 kts | 37° |
| 2026-05-04 18:23 | 52.31326 | 8.64410 | 36982 ft | 493 kts | 37° |
| 2026-05-04 18:24 | 52.36643 | 8.71479 | 36983 ft | 493 kts | 37° |
| 2026-05-04 18:24 | 52.41968 | 8.78574 | 36979 ft | 493 kts | 37° |
| 2026-05-04 18:25 | 52.47288 | 8.85669 | 36987 ft | 493 kts | 37° |
| 2026-05-04 18:25 | 52.52592 | 8.92776 | 36983 ft | 493 kts | 37° |
| 2026-05-04 18:26 | 52.57892 | 8.99916 | 36983 ft | 492 kts | 37° |
| 2026-05-04 18:26 | 52.63183 | 9.07074 | 36961 ft | 492 kts | 37° |
| 2026-05-04 18:27 | 52.68496 | 9.14272 | 36975 ft | 492 kts | 37° |
| 2026-05-04 18:27 | 52.73757 | 9.21399 | 36971 ft | 492 kts | 37° |
| 2026-05-04 18:28 | 52.79037 | 9.28589 | 36973 ft | 492 kts | 37° |
| 2026-05-04 18:28 | 52.84307 | 9.35810 | 36965 ft | 492 kts | 37° |
| 2026-05-04 18:29 | 52.88686 | 9.41826 | 36985 ft | 492 kts | 37° |
| 2026-05-04 18:29 | 52.93956 | 9.49066 | 36976 ft | 492 kts | 37° |
| 2026-05-04 18:30 | 53.01849 | 9.59979 | 36978 ft | 492 kts | 37° |
| 2026-05-04 18:31 | 53.07141 | 9.67320 | 36980 ft | 492 kts | 37° |
| 2026-05-04 18:31 | 53.12393 | 9.74629 | 36981 ft | 492 kts | 38° |
| 2026-05-04 18:32 | 53.17636 | 9.81957 | 36988 ft | 492 kts | 38° |
| 2026-05-04 18:32 | 53.22874 | 9.89309 | 36977 ft | 492 kts | 38° |
| 2026-05-04 18:33 | 53.28113 | 9.96677 | 36973 ft | 492 kts | 38° |
| 2026-05-04 18:33 | 53.33359 | 10.04043 | 36994 ft | 492 kts | 38° |
| 2026-05-04 18:34 | 53.38584 | 10.11425 | 36987 ft | 491 kts | 38° |
| 2026-05-04 18:34 | 53.43790 | 10.18831 | 36996 ft | 491 kts | 38° |
| 2026-05-04 18:35 | 53.48986 | 10.26249 | 36989 ft | 490 kts | 38° |
| 2026-05-04 18:35 | 53.54182 | 10.33673 | 36986 ft | 490 kts | 38° |
| 2026-05-04 18:36 | 53.59371 | 10.41108 | 36996 ft | 489 kts | 38° |
| 2026-05-04 18:36 | 53.64542 | 10.48553 | 36987 ft | 489 kts | 38° |
| 2026-05-04 18:37 | 53.69713 | 10.56003 | 36605 ft | 490 kts | 38° |
| 2026-05-04 18:37 | 53.72276 | 10.59711 | 36316 ft | 481 kts | 37° |
| 2026-05-04 18:37 | 53.74797 | 10.63376 | 35943 ft | 476 kts | 37° |
| 2026-05-04 18:37 | 53.77299 | 10.67024 | 35593 ft | 474 kts | 37° |
| 2026-05-04 18:38 | 53.79786 | 10.70647 | 35218 ft | 471 kts | 37° |
| 2026-05-04 18:38 | 53.82262 | 10.74249 | 34848 ft | 468 kts | 37° |
| 2026-05-04 18:38 | 53.84724 | 10.77836 | 34481 ft | 466 kts | 36° |
| 2026-05-04 18:38 | 53.87176 | 10.81415 | 34121 ft | 464 kts | 36° |
| 2026-05-04 18:39 | 53.89610 | 10.84973 | 33732 ft | 462 kts | 36° |
| 2026-05-04 18:39 | 53.92034 | 10.88524 | 33315 ft | 460 kts | 36° |
| 2026-05-04 18:39 | 53.94449 | 10.92070 | 32910 ft | 459 kts | 37° |
| 2026-05-04 18:39 | 53.96857 | 10.95616 | 32508 ft | 457 kts | 37° |
| 2026-05-04 18:40 | 53.99254 | 10.99149 | 32125 ft | 456 kts | 37° |
| 2026-05-04 18:40 | 54.01650 | 11.02686 | 31879 ft | 456 kts | 37° |
| 2026-05-04 18:40 | 54.04046 | 11.06228 | 31627 ft | 456 kts | 37° |
| 2026-05-04 18:40 | 54.06437 | 11.09766 | 31366 ft | 455 kts | 37° |
| 2026-05-04 18:41 | 54.08824 | 11.13302 | 31108 ft | 455 kts | 37° |
| 2026-05-04 18:41 | 54.11204 | 11.16832 | 30855 ft | 454 kts | 37° |
| 2026-05-04 18:41 | 54.13584 | 11.20368 | 30608 ft | 453 kts | 37° |
| 2026-05-04 18:41 | 54.15953 | 11.23896 | 30361 ft | 452 kts | 37° |
| 2026-05-04 18:42 | 54.18323 | 11.27435 | 30100 ft | 452 kts | 37° |
| 2026-05-04 18:42 | 54.20679 | 11.30959 | 29853 ft | 451 kts | 37° |
| 2026-05-04 18:42 | 54.23045 | 11.34498 | 29578 ft | 450 kts | 37° |
| 2026-05-04 18:42 | 54.25395 | 11.38016 | 29293 ft | 447 kts | 37° |
| 2026-05-04 18:43 | 54.27725 | 11.41514 | 28830 ft | 445 kts | 37° |
| 2026-05-04 18:43 | 54.30046 | 11.45006 | 28374 ft | 443 kts | 37° |
| 2026-05-04 18:43 | 54.32353 | 11.48484 | 27908 ft | 442 kts | 37° |
| 2026-05-04 18:43 | 54.34656 | 11.51958 | 27454 ft | 440 kts | 37° |
| 2026-05-04 18:44 | 54.36944 | 11.55416 | 26998 ft | 438 kts | 37° |
| 2026-05-04 18:44 | 54.38457 | 11.57706 | 26696 ft | 438 kts | 37° |
| 2026-05-04 18:44 | 54.41505 | 11.62326 | 26098 ft | 436 kts | 36° |
| 2026-05-04 18:44 | 54.43778 | 11.65771 | 25617 ft | 435 kts | 36° |
| 2026-05-04 18:45 | 54.46047 | 11.69213 | 25151 ft | 435 kts | 36° |
| 2026-05-04 18:45 | 54.48311 | 11.72658 | 24645 ft | 435 kts | 36° |
| 2026-05-04 18:45 | 54.50570 | 11.76108 | 24297 ft | 431 kts | 36° |
| 2026-05-04 18:45 | 54.52814 | 11.79541 | 23796 ft | 429 kts | 37° |
| 2026-05-04 18:46 | 54.55024 | 11.82928 | 23346 ft | 424 kts | 37° |
| 2026-05-04 18:46 | 54.57221 | 11.86294 | 22891 ft | 421 kts | 37° |
| 2026-05-04 18:46 | 54.59399 | 11.89634 | 22464 ft | 417 kts | 37° |
| 2026-05-04 18:46 | 54.61567 | 11.92917 | 21991 ft | 412 kts | 33° |
| 2026-05-04 18:47 | 54.63894 | 11.95720 | 21527 ft | 406 kts | 28° |
| 2026-05-04 18:47 | 54.66236 | 11.98412 | 21075 ft | 403 kts | 28° |
| 2026-05-04 18:47 | 54.68553 | 12.01080 | 20681 ft | 398 kts | 29° |
| 2026-05-04 18:47 | 54.70823 | 12.03709 | 20269 ft | 394 kts | 30° |
| 2026-05-04 18:48 | 54.73088 | 12.06337 | 19829 ft | 391 kts | 30° |
| 2026-05-04 18:48 | 54.75349 | 12.08961 | 19106 ft | 395 kts | 30° |
| 2026-05-04 18:48 | 54.77645 | 12.11620 | 18454 ft | 398 kts | 30° |
| 2026-05-04 18:48 | 54.79939 | 12.14278 | 17938 ft | 396 kts | 30° |
| 2026-05-04 18:49 | 54.82222 | 12.16927 | 17471 ft | 394 kts | 30° |
| 2026-05-04 18:49 | 54.84489 | 12.19568 | 17019 ft | 391 kts | 30° |
| 2026-05-04 18:49 | 54.86741 | 12.22194 | 16562 ft | 389 kts | 30° |
| 2026-05-04 18:49 | 54.88978 | 12.24810 | 16094 ft | 386 kts | 30° |
| 2026-05-04 18:50 | 54.91195 | 12.27407 | 15669 ft | 384 kts | 30° |
| 2026-05-04 18:50 | 54.93402 | 12.29993 | 15208 ft | 381 kts | 30° |
| 2026-05-04 18:50 | 54.95623 | 12.32597 | 14749 ft | 379 kts | 30° |
| 2026-05-04 18:50 | 54.97770 | 12.35119 | 14298 ft | 376 kts | 30° |
| 2026-05-04 18:51 | 54.99935 | 12.37663 | 13865 ft | 374 kts | 30° |
| 2026-05-04 18:51 | 55.02112 | 12.40215 | 13382 ft | 371 kts | 30° |
| 2026-05-04 18:51 | 55.04254 | 12.42711 | 12940 ft | 368 kts | 30° |
| 2026-05-04 18:51 | 55.06377 | 12.45180 | 12502 ft | 365 kts | 30° |
| 2026-05-04 18:52 | 55.08465 | 12.47613 | 12065 ft | 362 kts | 30° |
| 2026-05-04 18:52 | 55.10541 | 12.50043 | 11635 ft | 359 kts | 30° |
| 2026-05-04 18:52 | 55.12633 | 12.52495 | 11200 ft | 356 kts | 30° |
| 2026-05-04 18:52 | 55.14684 | 12.54900 | 10781 ft | 353 kts | 30° |
| 2026-05-04 18:53 | 55.16715 | 12.57292 | 10343 ft | 350 kts | 31° |
| 2026-05-04 18:53 | 55.18527 | 12.60112 | 9904 ft | 350 kts | 50° |
| 2026-05-04 18:53 | 55.19689 | 12.63741 | 9423 ft | 336 kts | 64° |
| 2026-05-04 18:53 | 55.20603 | 12.67411 | 8950 ft | 322 kts | 65° |
| 2026-05-04 18:54 | 55.21469 | 12.70962 | 8485 ft | 311 kts | 65° |
| 2026-05-04 18:54 | 55.22298 | 12.74386 | 8023 ft | 301 kts | 65° |
| 2026-05-04 18:54 | 55.23109 | 12.77739 | 7638 ft | 299 kts | 65° |
| 2026-05-04 18:54 | 55.23920 | 12.81099 | 7259 ft | 300 kts | 65° |
| 2026-05-04 18:55 | 55.24723 | 12.84431 | 6887 ft | 294 kts | 65° |
| 2026-05-04 18:55 | 55.26316 | 12.90985 | 6137 ft | 290 kts | 62° |
| 2026-05-04 18:55 | 55.27484 | 12.93770 | 5945 ft | 282 kts | 38° |
| 2026-05-04 18:56 | 55.29131 | 12.95564 | 5956 ft | 277 kts | 16° |
| 2026-05-04 18:56 | 55.30990 | 12.96143 | 5959 ft | 269 kts | 354° |
| 2026-05-04 18:56 | 55.32801 | 12.95559 | 5956 ft | 264 kts | 339° |
| 2026-05-04 18:56 | 55.34571 | 12.94638 | 5954 ft | 265 kts | 339° |
| 2026-05-04 18:57 | 55.36333 | 12.93717 | 5959 ft | 264 kts | 339° |
| 2026-05-04 18:57 | 55.38097 | 12.92797 | 5957 ft | 264 kts | 339° |
| 2026-05-04 18:57 | 55.39852 | 12.91881 | 5958 ft | 265 kts | 339° |
| 2026-05-04 18:57 | 55.41624 | 12.90952 | 5963 ft | 265 kts | 339° |
| 2026-05-04 18:58 | 55.43390 | 12.90021 | 5955 ft | 265 kts | 339° |
| 2026-05-04 18:58 | 55.45152 | 12.89089 | 5955 ft | 264 kts | 339° |
| 2026-05-04 18:58 | 55.46916 | 12.88158 | 5958 ft | 264 kts | 339° |
| 2026-05-04 18:58 | 55.48679 | 12.87228 | 5957 ft | 265 kts | 340° |
| 2026-05-04 18:59 | 55.50443 | 12.86295 | 5958 ft | 265 kts | 339° |
| 2026-05-04 18:59 | 55.52218 | 12.85408 | 5957 ft | 267 kts | 346° |
| 2026-05-04 18:59 | 55.54088 | 12.85454 | 5838 ft | 273 kts | 7° |
| 2026-05-04 18:59 | 55.55947 | 12.86120 | 5726 ft | 272 kts | 8° |
| 2026-05-04 19:00 | 55.57797 | 12.86794 | 5542 ft | 271 kts | 8° |
| 2026-05-04 19:00 | 55.59638 | 12.87465 | 5285 ft | 269 kts | 8° |
| 2026-05-04 19:00 | 55.61453 | 12.88169 | 5028 ft | 266 kts | 13° |
| 2026-05-04 19:00 | 55.63143 | 12.89475 | 4792 ft | 266 kts | 28° |
| 2026-05-04 19:01 | 55.64598 | 12.91485 | 4534 ft | 265 kts | 38° |
| 2026-05-04 19:01 | 55.65965 | 12.93634 | 4272 ft | 261 kts | 38° |
| 2026-05-04 19:01 | 55.67310 | 12.95722 | 4004 ft | 252 kts | 38° |
| 2026-05-04 19:01 | 55.68595 | 12.97725 | 3742 ft | 240 kts | 38° |
| 2026-05-04 19:02 | 55.69815 | 12.99646 | 3503 ft | 231 kts | 38° |
| 2026-05-04 19:02 | 55.70980 | 13.01503 | 3437 ft | 222 kts | 39° |
| 2026-05-04 19:02 | 55.72187 | 13.03128 | 3180 ft | 214 kts | 19° |
| 2026-05-04 19:02 | 55.73601 | 13.03389 | 3034 ft | 202 kts | 342° |
| 2026-05-04 19:03 | 55.74741 | 13.02110 | 3027 ft | 195 kts | 305° |
| 2026-05-04 19:03 | 55.75225 | 12.99887 | 3031 ft | 196 kts | 280° |
| 2026-05-04 19:03 | 55.75383 | 12.97472 | 3028 ft | 197 kts | 276° |
| 2026-05-04 19:03 | 55.75486 | 12.95038 | 3029 ft | 197 kts | 275° |
| 2026-05-04 19:04 | 55.75580 | 12.92698 | 3022 ft | 184 kts | 275° |
| 2026-05-04 19:04 | 55.75672 | 12.90456 | 3025 ft | 181 kts | 276° |
| 2026-05-04 19:04 | 55.75613 | 12.88254 | 2871 ft | 179 kts | 257° |
| 2026-05-04 19:04 | 55.75044 | 12.86294 | 2606 ft | 182 kts | 231° |
| 2026-05-04 19:05 | 55.74097 | 12.84768 | 2532 ft | 185 kts | 226° |
| 2026-05-04 19:05 | 55.73138 | 12.83262 | 2573 ft | 184 kts | 226° |
| 2026-05-04 19:05 | 55.72175 | 12.81754 | 2511 ft | 186 kts | 225° |
| 2026-05-04 19:05 | 55.71208 | 12.80245 | 2321 ft | 184 kts | 225° |
| 2026-05-04 19:06 | 55.70252 | 12.78754 | 2081 ft | 182 kts | 225° |
| 2026-05-04 19:06 | 55.69611 | 12.77754 | 1922 ft | 182 kts | 225° |
| 2026-05-04 19:06 | 55.68670 | 12.76290 | 1688 ft | 176 kts | 225° |
| 2026-05-04 19:06 | 55.67796 | 12.74932 | 1465 ft | 157 kts | 225° |
| 2026-05-04 19:07 | 55.67023 | 12.73731 | 1252 ft | 142 kts | 225° |
| 2026-05-04 19:07 | 55.66299 | 12.72604 | 1060 ft | 136 kts | 225° |
| 2026-05-04 19:07 | 55.65604 | 12.71520 | 865 ft | 134 kts | 224° |
| 2026-05-04 19:07 | 55.64902 | 12.70429 | 690 ft | 132 kts | 224° |
| 2026-05-04 19:08 | 55.64208 | 12.69351 | 500 ft | 133 kts | 224° |
| 2026-05-04 19:08 | 55.63518 | 12.68277 | 297 ft | 132 kts | 224° |
| 2026-05-04 19:08 | 55.62836 | 12.67213 | 136 ft | 132 kts | 224° |
| 2026-05-04 19:08 | 55.62170 | 12.66183 | 25 ft | 121 kts | 222° |
| 2026-05-04 19:09 | 55.61683 | 12.65397 | 23 ft | 61 kts | 220° |
| 2026-05-04 19:09 | 55.61449 | 12.65048 | 24 ft | 35 kts | 220° |
| 2026-05-04 19:09 | 55.61287 | 12.64734 | 26 ft | 34 kts | 240° |
| 2026-05-04 19:09 | 55.61231 | 12.64479 | 24 ft | 15 kts | 252° |
| 2026-05-04 19:10 | 55.61196 | 12.64288 | 24 ft | 17 kts | 252° |
| 2026-05-04 19:10 | 55.61238 | 12.64109 | 24 ft | 18 kts | 345° |
| 2026-05-04 19:10 | 55.61356 | 12.64198 | 25 ft | 20 kts | 33° |
| 2026-05-04 19:10 | 55.61481 | 12.64341 | 24 ft | 23 kts | 32° |
| 2026-05-04 19:11 | 55.61608 | 12.64486 | 25 ft | 21 kts | 34° |
| 2026-05-04 19:11 | 55.61725 | 12.64621 | 25 ft | 17 kts | 33° |
| 2026-05-04 19:11 | 55.61832 | 12.64744 | 24 ft | 20 kts | 33° |
| 2026-05-04 19:11 | 55.61945 | 12.64874 | 23 ft | 15 kts | 35° |
| 2026-05-04 19:12 | 55.62023 | 12.64964 | 25 ft | 11 kts | 33° |
| 2026-05-04 19:12 | 55.62076 | 12.65026 | 24 ft | 1 kts | 34° |
| 2026-05-04 19:12 | 55.62078 | 12.65028 | 24 ft | 0 kts | 34° |
| 2026-05-04 19:13 | 55.62081 | 12.65032 | 24 ft | 2 kts | 33° |
| 2026-05-04 19:13 | 55.62100 | 12.65053 | 24 ft | 3 kts | 34° |
| 2026-05-04 19:13 | 55.62126 | 12.65085 | 25 ft | 6 kts | 34° |
| 2026-05-04 19:14 | 55.62159 | 12.65124 | 24 ft | 8 kts | 33° |
| 2026-05-04 19:14 | 55.62197 | 12.65164 | 24 ft | 5 kts | 27° |
| 2026-05-04 19:14 | 55.62239 | 12.65158 | 24 ft | 8 kts | 332° |
| 2026-05-04 19:14 | 55.62280 | 12.65071 | 24 ft | 11 kts | 304° |
| 2026-05-04 19:15 | 55.62327 | 12.64942 | 25 ft | 14 kts | 302° |
| 2026-05-04 19:15 | 55.62384 | 12.64785 | 25 ft | 15 kts | 304° |
| 2026-05-04 19:15 | 55.62426 | 12.64690 | 24 ft | 10 kts | 320° |
| 2026-05-04 19:15 | 55.62503 | 12.64655 | 24 ft | 13 kts | 355° |
| 2026-05-04 19:16 | 55.62604 | 12.64653 | 24 ft | 11 kts | 4° |
| 2026-05-04 19:16 | 55.62657 | 12.64669 | 24 ft | 5 kts | 11° |
| 2026-05-04 19:16 | 55.62668 | 12.64672 | 24 ft | 3 kts | 8° |
| 2026-05-04 19:16 | 55.62690 | 12.64650 | 25 ft | 5 kts | 303° |
| 2026-05-04 19:17 | 55.62698 | 12.64591 | 24 ft | 5 kts | 283° |
| 2026-05-04 19:17 | 55.62700 | 12.64579 | 24 ft | 0 kts | 283° |